This is the latest recevied weather packets stored in our database for station/object DB0RSR-12. If no packets are shown the sender has not sent any weather packets the latest 10 day(s).
| Time | Temp. | Humidity | Pressure | Rain* | Wind** | Luminosity | Snow |
|---|---|---|---|---|---|---|---|
| 1777551046 | 27.22° C | 20% | 1017 hPa | - | - | - | - |
| 1777550146 | 26.67° C | 19% | 1017 hPa | - | - | - | - |
| 1777549246 | 26.67° C | 20% | 1017 hPa | - | - | - | - |
| 1777548346 | 26.11° C | 19% | 1017 hPa | - | - | - | - |
| 1777547446 | 26.11° C | 19% | 1017 hPa | - | - | - | - |
| 1777546546 | 26.67° C | 18% | 1017 hPa | - | - | - | - |
| 1777545645 | 25° C | 19% | 1017 hPa | - | - | - | - |
| 1777544745 | 24.44° C | 21% | 1017 hPa | - | - | - | - |
| 1777543845 | 24.44° C | 19% | 1017 hPa | - | - | - | - |
| 1777542945 | 23.89° C | 20% | 1017 hPa | - | - | - | - |
| 1777542045 | 21.67° C | 24% | 1017 hPa | - | - | - | - |
| 1777541145 | 22.22° C | 20% | 1018 hPa | - | - | - | - |
| 1777540245 | 19.44° C | 25% | 1018 hPa | - | - | - | - |
| 1777539345 | 20° C | 23% | 1018 hPa | - | - | - | - |
| 1777538445 | 19.44° C | 23% | 1018 hPa | - | - | - | - |
| 1777537545 | 18.33° C | 24% | 1018 hPa | - | - | - | - |
| 1777536645 | 17.22° C | 27% | 1018 hPa | - | - | - | - |
| 1777535745 | 15.56° C | 30% | 1018 hPa | - | - | - | - |
| 1777534845 | 14.44° C | 31% | 1018 hPa | - | - | - | - |
| 1777533945 | 13.33° C | 33% | 1018 hPa | - | - | - | - |
| 1777533045 | 12.22° C | 39% | 1018 hPa | - | - | - | - |
| 1777532145 | 10.56° C | 44% | 1018 hPa | - | - | - | - |
| 1777531244 | 8.89° C | 48% | 1018 hPa | - | - | - | - |
| 1777530344 | 7.78° C | 48% | 1018 hPa | - | - | - | - |
| 1777529444 | 6.67° C | 50% | 1018 hPa | - | - | - | - |
* Rain since midnight (hover to see other rain measurements)
** Current wind speed in m/s (hover to see current wind gust speed)